createdAt,value
2022-12-18T00:01:09.647Z,67.2
2022-12-18T00:02:25.820Z,67.2
2022-12-18T00:03:41.094Z,67.3
2022-12-18T00:04:57.276Z,67.2
2022-12-18T00:06:13.396Z,67.5
2022-12-18T00:07:29.660Z,67.5
2022-12-18T00:08:45.836Z,67.5
2022-12-18T00:10:02.017Z,67.5
2022-12-18T00:11:18.219Z,67.5
2022-12-18T00:12:34.406Z,67.5
2022-12-18T00:13:50.533Z,67.5
2022-12-18T00:15:06.770Z,67.5
2022-12-18T00:16:22.897Z,67.5
2022-12-18T00:17:39.143Z,67.3
2022-12-18T00:18:55.342Z,67.5
2022-12-18T00:20:10.537Z,67.5
2022-12-18T00:21:26.731Z,67.5
2022-12-18T00:22:42.925Z,67.5
2022-12-18T00:23:59.049Z,67.7
2022-12-18T00:25:15.284Z,67.7
2022-12-18T00:26:31.475Z,67.7
2022-12-18T00:27:47.676Z,67.9
2022-12-18T00:29:03.782Z,67.5
2022-12-18T00:30:20.044Z,67.8
2022-12-18T00:31:36.237Z,67.5
2022-12-18T00:32:52.425Z,67.5
2022-12-18T00:34:08.602Z,67.5
2022-12-18T00:35:24.800Z,67.3
2022-12-18T00:36:39.989Z,67.3
2022-12-18T00:37:56.180Z,67.5
2022-12-18T00:39:12.304Z,67.5
2022-12-18T00:40:28.488Z,67.3
2022-12-18T00:41:44.759Z,67.1
2022-12-18T00:43:00.937Z,67.2
2022-12-18T00:44:17.125Z,67.2
2022-12-18T00:45:33.321Z,67.5
2022-12-18T00:46:49.507Z,67.5
2022-12-18T00:48:05.690Z,67.7
2022-12-18T00:49:21.878Z,67.7
2022-12-18T00:50:38.067Z,67.5
2022-12-18T00:51:54.274Z,67.7
2022-12-18T00:53:09.399Z,67.5
2022-12-18T00:54:25.660Z,67.7
2022-12-18T00:55:41.838Z,67.5
2022-12-18T00:56:58.029Z,67.7
2022-12-18T00:58:14.216Z,67.8
2022-12-18T00:59:30.412Z,67.7
2022-12-18T01:00:46.530Z,67.5
2022-12-18T01:02:02.797Z,67.5
2022-12-18T01:03:18.978Z,67.7
2022-12-18T01:04:35.171Z,67.5
2022-12-18T01:05:51.278Z,67.3
2022-12-18T01:07:07.552Z,67.5
2022-12-18T01:08:23.728Z,67.5
2022-12-18T01:09:38.869Z,67.2
2022-12-18T01:10:55.135Z,66.7
2022-12-18T01:12:11.312Z,67.2
2022-12-18T01:13:27.514Z,67.7
2022-12-18T01:14:43.620Z,67.5
2022-12-18T01:15:59.892Z,67.5
2022-12-18T01:17:15.098Z,67.2
2022-12-18T01:18:31.286Z,67.8
2022-12-18T01:19:47.483Z,67.7
2022-12-18T01:21:03.659Z,67.5
2022-12-18T01:22:19.856Z,67.4
2022-12-18T01:23:36.035Z,66.9
2022-12-18T01:24:52.231Z,67
2022-12-18T01:26:08.437Z,67.2
2022-12-18T01:27:24.528Z,67
2022-12-18T01:28:40.806Z,67
2022-12-18T01:29:56.987Z,67.3
2022-12-18T01:31:13.096Z,67.3
2022-12-18T01:32:29.373Z,67.3
2022-12-18T01:33:44.492Z,67.7
2022-12-18T01:35:00.759Z,67.5
2022-12-18T01:36:16.950Z,67.5
2022-12-18T01:37:33.046Z,67.7
2022-12-18T01:38:49.332Z,67.5
2022-12-18T01:40:05.428Z,67.7
2022-12-18T01:41:21.629Z,67.7
2022-12-18T01:42:37.888Z,67.7
2022-12-18T01:43:53.993Z,67.8
2022-12-18T01:45:10.193Z,67.8
2022-12-18T01:46:26.465Z,67.9
2022-12-18T01:47:42.657Z,67.9
2022-12-18T01:48:58.837Z,67.8
2022-12-18T01:50:14.052Z,67.8
2022-12-18T01:51:30.234Z,67.9
2022-12-18T01:52:46.412Z,67.8
2022-12-18T01:54:02.619Z,67.9
2022-12-18T01:55:18.704Z,67.5
2022-12-18T01:56:34.986Z,67.5
2022-12-18T01:57:51.173Z,67.2
2022-12-18T01:59:07.358Z,67.2
2022-12-18T02:00:23.475Z,67.2
2022-12-18T02:01:39.740Z,67
2022-12-18T02:02:55.846Z,67.2
2022-12-18T02:04:12.123Z,67.3
2022-12-18T02:05:28.309Z,67.2
2022-12-18T02:06:43.507Z,67
2022-12-18T02:07:59.607Z,67.2
2022-12-18T02:09:15.793Z,67.3
2022-12-18T02:10:32.092Z,67.2
2022-12-18T02:11:48.266Z,67.3
2022-12-18T02:13:04.365Z,67.5
2022-12-18T02:14:20.646Z,67.2
2022-12-18T02:15:36.841Z,67.3
2022-12-18T02:16:53.034Z,67.5
2022-12-18T02:18:09.125Z,67.5
2022-12-18T02:19:25.402Z,67.2
2022-12-18T02:20:41.598Z,67.5
2022-12-18T02:21:57.787Z,67.5
2022-12-18T02:23:12.907Z,67.5
2022-12-18T02:24:29.184Z,67.5
2022-12-18T02:25:45.281Z,67.5
2022-12-18T02:27:01.549Z,67.5
2022-12-18T02:28:17.739Z,67.7
2022-12-18T02:29:33.928Z,67.7
2022-12-18T02:30:50.039Z,67.5
2022-12-18T02:32:06.321Z,67.9
2022-12-18T02:33:22.495Z,67.5
2022-12-18T02:34:38.589Z,67.9
2022-12-18T02:35:54.874Z,67.7
2022-12-18T02:37:11.065Z,67.7
2022-12-18T02:38:27.266Z,67.7
2022-12-18T02:39:42.370Z,67.5
2022-12-18T02:40:58.660Z,67.5
2022-12-18T02:42:14.846Z,67.5
2022-12-18T02:43:31.040Z,67.5
2022-12-18T02:44:47.210Z,67.5
2022-12-18T02:46:03.405Z,67.9
2022-12-18T02:47:19.504Z,67.7
2022-12-18T02:48:35.778Z,67.8
2022-12-18T02:49:51.979Z,67.9
2022-12-18T02:51:08.159Z,67.9
2022-12-18T02:52:24.345Z,67.9
2022-12-18T02:53:40.545Z,67.8
2022-12-18T02:54:56.725Z,67.9
2022-12-18T02:56:11.930Z,67.9
2022-12-18T02:57:28.126Z,67.9
2022-12-18T02:58:44.327Z,67.8
2022-12-18T03:00:00.397Z,67.9
2022-12-18T03:01:16.603Z,67.9
2022-12-18T03:02:32.791Z,67.8
2022-12-18T03:03:48.969Z,67.9
2022-12-18T03:05:05.204Z,68
2022-12-18T03:06:21.394Z,67.9
2022-12-18T03:07:37.589Z,67.9
2022-12-18T03:08:53.777Z,67.9
2022-12-18T03:10:09.912Z,68
2022-12-18T03:11:26.151Z,67.9
2022-12-18T03:12:41.358Z,67.8
2022-12-18T03:13:57.549Z,68
2022-12-18T03:15:13.744Z,67.7
2022-12-18T03:16:29.881Z,68
2022-12-18T03:17:46.116Z,68.1
2022-12-18T03:19:02.260Z,67.8
2022-12-18T03:20:18.490Z,67.9
2022-12-18T03:21:34.677Z,67.9
2022-12-18T03:22:50.878Z,67.5
2022-12-18T03:24:07.056Z,67.5
2022-12-18T03:25:23.258Z,67.5
2022-12-18T03:26:39.382Z,67.1
2022-12-18T03:27:55.575Z,67
2022-12-18T03:29:10.845Z,66.8
2022-12-18T03:30:27.016Z,67.2
2022-12-18T03:31:43.207Z,66.8
2022-12-18T03:32:59.403Z,67.2
2022-12-18T03:34:15.535Z,66.8
2022-12-18T03:35:31.790Z,67
2022-12-18T03:36:47.972Z,67.2
2022-12-18T03:38:04.151Z,67.3
2022-12-18T03:39:20.354Z,67.3
2022-12-18T03:40:36.530Z,67.2
2022-12-18T03:41:52.735Z,67.3
2022-12-18T03:43:08.910Z,67.5
2022-12-18T03:44:25.063Z,67.5
2022-12-18T03:45:40.308Z,67.5
2022-12-18T03:46:56.508Z,67.5
2022-12-18T03:48:12.685Z,67.5
2022-12-18T03:49:28.870Z,67.5
2022-12-18T03:50:45.004Z,67.2
2022-12-18T03:52:01.259Z,67.5
2022-12-18T03:53:17.439Z,67.7
2022-12-18T03:54:33.637Z,67.8
2022-12-18T03:55:49.816Z,67.5
2022-12-18T03:57:05.954Z,67.7
2022-12-18T03:58:22.203Z,67.5
2022-12-18T03:59:38.395Z,67.5
2022-12-18T04:00:54.570Z,67.5
2022-12-18T04:02:09.788Z,67.5
2022-12-18T04:03:25.912Z,67.7
2022-12-18T04:04:42.153Z,67.7
2022-12-18T04:05:58.359Z,67.7
2022-12-18T04:07:14.474Z,67.7
2022-12-18T04:08:30.731Z,67.5
2022-12-18T04:09:46.912Z,67.5
2022-12-18T04:11:03.111Z,67.5
2022-12-18T04:12:19.230Z,66.8
2022-12-18T04:13:35.478Z,67.7
2022-12-18T04:14:51.671Z,67.8
2022-12-18T04:16:07.814Z,67.9
2022-12-18T04:17:24.063Z,67.6
2022-12-18T04:18:39.205Z,67.9
2022-12-18T04:19:55.383Z,67.2
2022-12-18T04:21:11.635Z,67.5
2022-12-18T04:22:27.829Z,67.2
2022-12-18T04:23:44.023Z,67.2
2022-12-18T04:25:00.131Z,67.2
2022-12-18T04:26:16.397Z,67.2
2022-12-18T04:27:32.585Z,67
2022-12-18T04:28:48.761Z,66.9
2022-12-18T04:30:04.897Z,67
2022-12-18T04:31:21.157Z,67
2022-12-18T04:32:37.275Z,66.9
2022-12-18T04:33:53.523Z,67
2022-12-18T04:35:08.659Z,67
2022-12-18T04:36:24.862Z,67.2
2022-12-18T04:37:41.119Z,67.3
2022-12-18T04:38:57.306Z,67.5
2022-12-18T04:40:13.416Z,67.2
2022-12-18T04:41:29.669Z,67.3
2022-12-18T04:42:45.800Z,67.2
2022-12-18T04:44:02.063Z,67.5
2022-12-18T04:45:18.241Z,67.2
2022-12-18T04:46:34.435Z,67.2
2022-12-18T04:47:50.633Z,67.3
2022-12-18T04:49:06.821Z,67.3
2022-12-18T04:50:22.938Z,67.2
2022-12-18T04:51:38.208Z,67.5
2022-12-18T04:52:54.388Z,67.5
2022-12-18T04:54:10.582Z,67.5
2022-12-18T04:55:26.774Z,67.5
2022-12-18T04:56:42.954Z,67.7
2022-12-18T04:57:59.088Z,67.5
2022-12-18T04:59:15.332Z,67.5
2022-12-18T05:00:31.530Z,67.5
2022-12-18T05:01:47.720Z,67.5
2022-12-18T05:03:03.903Z,67.5
2022-12-18T05:04:20.091Z,67.5
2022-12-18T05:05:36.214Z,67.7
2022-12-18T05:06:52.404Z,67.8
2022-12-18T05:08:07.617Z,67.8
2022-12-18T05:09:23.880Z,67.8
2022-12-18T05:10:40.062Z,67.8
2022-12-18T05:11:56.254Z,67.9
2022-12-18T05:13:12.371Z,67.5
2022-12-18T05:14:28.628Z,67.7
2022-12-18T05:15:44.815Z,67.8
2022-12-18T05:17:00.996Z,67.7
2022-12-18T05:18:17.197Z,67.7
2022-12-18T05:19:33.380Z,67.9
2022-12-18T05:20:49.573Z,67.7
2022-12-18T05:22:05.690Z,67.5
2022-12-18T05:23:21.957Z,66.8
2022-12-18T05:24:37.154Z,67.3
2022-12-18T05:25:53.337Z,66.9
2022-12-18T05:27:09.540Z,67.2
2022-12-18T05:28:25.721Z,67.5
2022-12-18T05:29:41.913Z,67
2022-12-18T05:30:58.107Z,66.5
2022-12-18T05:32:13.231Z,67.2
2022-12-18T05:33:29.509Z,66.9
2022-12-18T05:34:45.693Z,66.7
2022-12-18T05:36:01.886Z,66.6
2022-12-18T05:37:18.063Z,66.6
2022-12-18T05:38:34.255Z,66.5
2022-12-18T05:39:50.455Z,66.7
2022-12-18T05:41:06.562Z,66.3
2022-12-18T05:42:22.832Z,66.5
2022-12-18T05:43:39.007Z,66.5
2022-12-18T05:44:55.134Z,66.7
2022-12-18T05:46:11.390Z,66.9
2022-12-18T05:47:27.582Z,66.7
2022-12-18T05:48:42.782Z,66.7
2022-12-18T05:49:58.970Z,66.7
2022-12-18T05:51:15.160Z,66.6
2022-12-18T05:52:31.282Z,66.8
2022-12-18T05:53:47.460Z,66.8
2022-12-18T05:55:03.725Z,67
2022-12-18T05:56:19.931Z,67.2
2022-12-18T05:57:36.106Z,66.9
2022-12-18T05:58:52.303Z,66.7
2022-12-18T06:00:08.496Z,67
2022-12-18T06:01:24.671Z,66.8
2022-12-18T06:02:40.876Z,66.7
2022-12-18T06:03:56.965Z,67.2
2022-12-18T06:05:12.253Z,67.2
2022-12-18T06:06:28.368Z,67.2
2022-12-18T06:07:44.641Z,67.3
2022-12-18T06:09:00.836Z,67.3
2022-12-18T06:10:16.933Z,67.5
2022-12-18T06:11:33.132Z,67.3
2022-12-18T06:12:49.389Z,67.5
2022-12-18T06:14:05.593Z,67.5
2022-12-18T06:15:21.777Z,67.5
2022-12-18T06:16:37.958Z,67.5
2022-12-18T06:17:54.076Z,67
2022-12-18T06:19:10.344Z,67.3
2022-12-18T06:20:26.532Z,67.2
2022-12-18T06:21:41.739Z,67.5
2022-12-18T06:22:57.832Z,67.5
2022-12-18T06:24:14.023Z,67.5
2022-12-18T06:25:30.312Z,67.3
2022-12-18T06:26:46.492Z,67.6
2022-12-18T06:28:02.687Z,67.7
2022-12-18T06:29:18.775Z,68
2022-12-18T06:30:34.973Z,67.7
2022-12-18T06:31:51.259Z,67.7
2022-12-18T06:33:07.340Z,66.9
2022-12-18T06:34:23.624Z,66.8
2022-12-18T06:35:39.727Z,66.4
2022-12-18T06:36:56.007Z,66.7
2022-12-18T06:38:11.206Z,66.8
2022-12-18T06:39:27.311Z,66.7
2022-12-18T06:40:43.589Z,66.8
2022-12-18T06:41:59.780Z,66.8
2022-12-18T06:43:15.883Z,67
2022-12-18T06:44:32.072Z,66.8
2022-12-18T06:45:48.348Z,66.9
2022-12-18T06:47:04.529Z,67
2022-12-18T06:48:20.715Z,67.2
2022-12-18T06:49:36.924Z,67.2
2022-12-18T06:50:53.108Z,67.3
2022-12-18T06:52:09.191Z,67.2
2022-12-18T06:53:25.484Z,67.2
2022-12-18T06:54:40.682Z,67.2
2022-12-18T06:55:56.877Z,67.2
2022-12-18T06:57:13.069Z,67.5
2022-12-18T06:58:29.159Z,67.3
2022-12-18T06:59:45.438Z,67.5
2022-12-18T07:01:01.637Z,67.5
2022-12-18T07:02:17.827Z,67.5
2022-12-18T07:03:33.920Z,67.5
2022-12-18T07:04:50.104Z,67.5
2022-12-18T07:06:06.395Z,67.5
2022-12-18T07:07:22.570Z,67.5
2022-12-18T07:08:38.776Z,67.5
2022-12-18T07:09:54.963Z,67.5
2022-12-18T07:11:10.165Z,67.5
2022-12-18T07:12:26.258Z,67.5
2022-12-18T07:13:42.442Z,67.5
2022-12-18T07:14:58.736Z,67.3
2022-12-18T07:16:14.909Z,67.5
2022-12-18T07:17:31.101Z,67.5
2022-12-18T07:18:47.305Z,67.5
2022-12-18T07:20:03.391Z,67.3
2022-12-18T07:21:19.665Z,67.3
2022-12-18T07:22:35.865Z,67.5
2022-12-18T07:23:52.051Z,67.7
2022-12-18T07:25:08.235Z,67.5
2022-12-18T07:26:24.329Z,67.3
2022-12-18T07:27:39.529Z,66.9
2022-12-18T07:28:55.832Z,67
2022-12-18T07:30:11.920Z,66.9
2022-12-18T07:31:28.210Z,66.9
2022-12-18T07:32:44.389Z,66.7
2022-12-18T07:34:00.574Z,66.9
2022-12-18T07:35:16.676Z,66.9
2022-12-18T07:36:32.978Z,66.8
2022-12-18T07:37:49.145Z,66.9
2022-12-18T07:39:05.242Z,67
2022-12-18T07:40:21.527Z,66.9
2022-12-18T07:41:37.722Z,67
2022-12-18T07:42:53.896Z,67.2
2022-12-18T07:44:09.105Z,67.2
2022-12-18T07:45:25.306Z,66.8
2022-12-18T07:46:41.496Z,67.3
2022-12-18T07:47:57.668Z,67.2
2022-12-18T07:49:13.864Z,67.3
2022-12-18T07:50:30.056Z,67.2
2022-12-18T07:51:46.248Z,67.5
2022-12-18T07:53:02.441Z,67.7
2022-12-18T07:54:18.616Z,67.7
2022-12-18T07:55:34.812Z,67.7
2022-12-18T07:56:50.991Z,67.8
2022-12-18T07:58:07.079Z,67.8
2022-12-18T07:59:23.277Z,67.8
2022-12-18T08:00:38.588Z,67.8
2022-12-18T08:01:54.765Z,67.8
2022-12-18T08:03:10.956Z,67.8
2022-12-18T08:04:27.144Z,67.9
2022-12-18T08:05:43.334Z,67.9
2022-12-18T08:06:59.523Z,67.8
2022-12-18T08:08:15.717Z,67.8
2022-12-18T08:09:31.899Z,67.8
2022-12-18T08:10:48.100Z,67.8
2022-12-18T08:12:04.296Z,67.9
2022-12-18T08:13:20.368Z,67.8
2022-12-18T08:14:36.662Z,67.5
2022-12-18T08:15:52.744Z,67.4
2022-12-18T08:17:08.065Z,67.2
2022-12-18T08:18:24.251Z,67
2022-12-18T08:19:40.443Z,67.2
2022-12-18T08:20:56.622Z,67.2
2022-12-18T08:22:12.811Z,67.3
2022-12-18T08:23:28.903Z,67.2
2022-12-18T08:24:45.196Z,67.2
2022-12-18T08:26:01.386Z,67.2
2022-12-18T08:27:17.576Z,67.2
2022-12-18T08:28:33.644Z,67.2
2022-12-18T08:29:49.942Z,67.2
2022-12-18T08:31:06.021Z,67.3
2022-12-18T08:32:22.322Z,67.2
2022-12-18T08:33:37.531Z,67.2
2022-12-18T08:34:53.730Z,67.2
2022-12-18T08:36:09.908Z,67.2
2022-12-18T08:37:26.096Z,67.2
2022-12-18T08:38:42.181Z,67.2
2022-12-18T08:39:58.480Z,67.2
2022-12-18T08:41:14.668Z,67.2
2022-12-18T08:42:30.743Z,67.3
2022-12-18T08:43:47.039Z,67.2
2022-12-18T08:45:03.242Z,67.3
2022-12-18T08:46:19.316Z,67.3
2022-12-18T08:47:35.619Z,67.2
2022-12-18T08:48:51.796Z,67.2
2022-12-18T08:50:07.015Z,67
2022-12-18T08:51:23.209Z,67.3
2022-12-18T08:52:39.275Z,67.2
2022-12-18T08:53:55.570Z,67.1
2022-12-18T08:55:11.639Z,67
2022-12-18T08:56:27.946Z,67
2022-12-18T08:57:44.139Z,66.7
2022-12-18T08:59:00.213Z,67
2022-12-18T09:00:16.526Z,66.8
2022-12-18T09:01:32.583Z,66.7
2022-12-18T09:02:48.900Z,66.6
2022-12-18T09:04:05.087Z,66.2
2022-12-18T09:05:21.279Z,66.3
2022-12-18T09:06:36.493Z,66.3
2022-12-18T09:07:52.681Z,66
2022-12-18T09:09:08.742Z,66.1
2022-12-18T09:10:24.923Z,66.1
2022-12-18T09:11:41.244Z,66.2
2022-12-18T09:12:57.440Z,66.3
2022-12-18T09:14:13.496Z,66.4
2022-12-18T09:15:29.810Z,66.4
2022-12-18T09:16:45.994Z,66.5
2022-12-18T09:18:02.197Z,66.3
2022-12-18T09:19:18.372Z,66.3
2022-12-18T09:20:34.570Z,66.4
2022-12-18T09:21:50.750Z,66.6
2022-12-18T09:23:05.954Z,66.6
2022-12-18T09:24:22.143Z,66.4
2022-12-18T09:25:38.335Z,66.5
2022-12-18T09:26:54.412Z,66.6
2022-12-18T09:28:10.713Z,66.5
2022-12-18T09:29:26.900Z,66.6
2022-12-18T09:30:43.099Z,66.7
2022-12-18T09:31:59.154Z,66.5
2022-12-18T09:33:15.467Z,66.6
2022-12-18T09:34:31.673Z,66.7
2022-12-18T09:35:47.842Z,66.6
2022-12-18T09:37:04.048Z,66.6
2022-12-18T09:38:20.231Z,66.6
2022-12-18T09:39:35.443Z,66.6
2022-12-18T09:40:51.621Z,66.5
2022-12-18T09:42:07.821Z,66.6
2022-12-18T09:43:24.008Z,66.6
2022-12-18T09:44:40.055Z,66.6
2022-12-18T09:45:56.382Z,66.7
2022-12-18T09:47:11.593Z,66.8
2022-12-18T09:48:27.788Z,66.7
2022-12-18T09:49:43.966Z,66.6
2022-12-18T09:51:00.157Z,66.6
2022-12-18T09:52:16.340Z,66.3
2022-12-18T09:53:32.539Z,66.2
2022-12-18T09:54:48.584Z,66.3
2022-12-18T09:56:04.908Z,66
2022-12-18T09:57:21.104Z,66.2
2022-12-18T09:58:37.171Z,66.2
2022-12-18T09:59:53.481Z,66.3
2022-12-18T10:01:09.667Z,66.4
2022-12-18T10:02:25.717Z,66.5
2022-12-18T10:03:41.070Z,66.4
2022-12-18T10:04:57.260Z,66.5
2022-12-18T10:06:13.440Z,66.3
2022-12-18T10:07:29.635Z,66.5
2022-12-18T10:08:45.813Z,66.3
2022-12-18T10:10:01.867Z,66.4
2022-12-18T10:11:18.065Z,66.5
2022-12-18T10:12:34.253Z,66.3
2022-12-18T10:13:50.558Z,66.5
2022-12-18T10:15:06.618Z,66.4
2022-12-18T10:16:22.953Z,66.5
2022-12-18T10:17:39.132Z,66.6
2022-12-18T10:18:55.327Z,66.6
2022-12-18T10:20:10.523Z,66.6
2022-12-18T10:21:26.699Z,66.6
2022-12-18T10:22:42.900Z,66.6
2022-12-18T10:23:58.937Z,66.3
2022-12-18T10:25:15.143Z,66.6
2022-12-18T10:26:31.455Z,66.7
2022-12-18T10:27:47.655Z,66.4
2022-12-18T10:29:03.826Z,66.4
2022-12-18T10:30:20.022Z,66.7
2022-12-18T10:31:36.206Z,66.5
2022-12-18T10:32:52.257Z,66.4
2022-12-18T10:34:08.594Z,66.4
2022-12-18T10:35:24.767Z,66.8
2022-12-18T10:36:39.979Z,67.1
2022-12-18T10:37:56.170Z,67
2022-12-18T10:39:12.350Z,66.8
2022-12-18T10:40:28.400Z,66.5
2022-12-18T10:41:44.715Z,66.2
2022-12-18T10:43:00.918Z,66.1
2022-12-18T10:44:17.109Z,66
2022-12-18T10:45:33.296Z,65.9
2022-12-18T10:46:49.326Z,66
2022-12-18T10:48:05.661Z,66
2022-12-18T10:49:21.849Z,66
2022-12-18T10:50:38.029Z,66
2022-12-18T10:51:54.222Z,65.9
2022-12-18T10:53:09.418Z,66.2
2022-12-18T10:54:25.610Z,66.2
2022-12-18T10:55:41.797Z,66.2
2022-12-18T10:56:57.846Z,66.2
2022-12-18T10:58:14.039Z,66.2
2022-12-18T10:59:30.373Z,66.1
2022-12-18T11:00:46.551Z,66.1
2022-12-18T11:02:02.748Z,66
2022-12-18T11:03:18.933Z,66.3
2022-12-18T11:04:35.121Z,66.2
2022-12-18T11:05:51.306Z,66.2
2022-12-18T11:07:07.496Z,66.1
2022-12-18T11:08:23.674Z,66.4
2022-12-18T11:09:38.870Z,66.1
2022-12-18T11:10:54.917Z,66.2
2022-12-18T11:12:11.246Z,66
2022-12-18T11:13:27.448Z,66.3
2022-12-18T11:14:43.636Z,66.2
2022-12-18T11:15:59.825Z,66.3
2022-12-18T11:17:16.013Z,66.2
2022-12-18T11:18:32.182Z,66
2022-12-18T11:19:48.386Z,66.3
2022-12-18T11:21:04.556Z,65.9
2022-12-18T11:22:20.607Z,66.1
2022-12-18T11:23:36.948Z,66.2
2022-12-18T11:24:53.123Z,66.1
2022-12-18T11:26:08.180Z,66.2
2022-12-18T11:28:40.709Z,66.3
2022-12-18T11:29:56.897Z,66.2
2022-12-18T11:31:13.086Z,66.3
2022-12-18T11:32:29.276Z,66.3
2022-12-18T11:33:45.412Z,66.3
2022-12-18T11:35:01.604Z,66.3
2022-12-18T11:36:17.821Z,66.3
2022-12-18T11:37:34.023Z,66.4
2022-12-18T11:38:50.215Z,66.3
2022-12-18T11:40:06.349Z,66.2
2022-12-18T11:41:22.527Z,66.3
2022-12-18T11:42:37.783Z,66.2
2022-12-18T11:43:53.979Z,66.2
2022-12-18T11:45:10.154Z,66.3
2022-12-18T11:46:26.349Z,66.3
2022-12-18T11:47:42.531Z,66.3
2022-12-18T11:48:58.677Z,66.3
2022-12-18T11:50:14.911Z,66.4
2022-12-18T11:51:31.087Z,66.4
2022-12-18T11:52:47.277Z,66.1
2022-12-18T11:54:03.464Z,66
2022-12-18T11:55:19.660Z,66.3
2022-12-18T11:56:35.849Z,66.3
2022-12-18T11:57:52.036Z,66.2
2022-12-18T11:59:07.181Z,66
2022-12-18T12:00:23.414Z,65.9
2022-12-18T12:01:39.620Z,66.1
2022-12-18T12:02:55.802Z,65.9
2022-12-18T12:04:11.982Z,66
2022-12-18T12:05:28.174Z,65.9
2022-12-18T12:06:44.315Z,66.2
2022-12-18T12:08:00.555Z,66.1
2022-12-18T12:09:16.738Z,66.2
2022-12-18T12:10:32.916Z,66.4
2022-12-18T12:11:49.110Z,66.4
2022-12-18T12:13:05.293Z,66.4
2022-12-18T12:14:21.479Z,66.5
2022-12-18T12:15:36.690Z,66.6
2022-12-18T12:16:52.812Z,66.4
2022-12-18T12:18:08.998Z,66.4
2022-12-18T12:19:25.190Z,66.5
2022-12-18T12:20:41.441Z,66.2
2022-12-18T12:21:57.620Z,66.2
2022-12-18T12:23:13.819Z,66.4
2022-12-18T12:24:30.005Z,66.3
2022-12-18T12:25:46.193Z,66.3
2022-12-18T12:27:02.380Z,66.1
2022-12-18T12:28:18.570Z,66.1
2022-12-18T12:29:34.757Z,66.2
2022-12-18T12:30:50.872Z,66.2
2022-12-18T12:32:06.144Z,66.2
2022-12-18T12:33:22.331Z,66.2
2022-12-18T12:34:38.521Z,66.1
2022-12-18T12:35:54.704Z,66.5
2022-12-18T12:37:10.890Z,66.4
2022-12-18T12:38:27.070Z,66.4
2022-12-18T12:39:43.270Z,66.4
2022-12-18T12:40:59.449Z,66.5
2022-12-18T12:42:15.641Z,66.6
2022-12-18T12:43:31.765Z,66.5
2022-12-18T12:44:48.024Z,66.5
2022-12-18T12:46:04.214Z,66.6
2022-12-18T12:47:20.393Z,66.5
2022-12-18T12:48:35.531Z,66.6
2022-12-18T12:49:51.726Z,66.5
2022-12-18T12:51:07.980Z,66.6
2022-12-18T12:52:24.165Z,66.6
2022-12-18T12:53:40.353Z,66.7
2022-12-18T12:54:56.539Z,66.7
2022-12-18T12:56:12.714Z,66.5
2022-12-18T12:57:28.921Z,66.6
2022-12-18T12:58:45.086Z,66.6
2022-12-18T13:00:01.276Z,66.6
2022-12-18T13:01:17.470Z,66.6
2022-12-18T13:02:33.653Z,66.6
2022-12-18T13:03:49.854Z,66.7
2022-12-18T13:05:04.982Z,66.6
2022-12-18T13:06:21.240Z,66.8
2022-12-18T13:07:37.426Z,66.7
2022-12-18T13:08:53.535Z,66.5
2022-12-18T13:10:09.799Z,66.6
2022-12-18T13:11:25.975Z,66.8
2022-12-18T13:12:42.112Z,66.6
2022-12-18T13:13:58.352Z,66.8
2022-12-18T13:15:14.538Z,66.6
2022-12-18T13:16:30.727Z,66.6
2022-12-18T13:17:46.927Z,66.7
2022-12-18T13:19:03.110Z,66.6
2022-12-18T13:20:19.234Z,66.6
2022-12-18T13:21:34.429Z,66.7
2022-12-18T13:22:50.697Z,66.6
2022-12-18T13:24:06.868Z,66
2022-12-18T13:25:23.064Z,65.5
2022-12-18T13:26:39.244Z,65.2
2022-12-18T13:27:55.367Z,64.8
2022-12-18T13:29:11.630Z,64.5
2022-12-18T13:30:27.810Z,64.3
2022-12-18T13:31:43.990Z,64
2022-12-18T13:33:00.195Z,63.8
2022-12-18T13:34:16.310Z,63.7
2022-12-18T13:35:32.482Z,63.6
2022-12-18T13:36:48.752Z,63.4
2022-12-18T13:38:03.951Z,63.3
2022-12-18T13:39:20.141Z,63.1
2022-12-18T13:41:52.515Z,63.1
2022-12-18T13:43:08.707Z,62.7
2022-12-18T13:44:24.889Z,62.7
2022-12-18T13:45:41.076Z,62.8
2022-12-18T13:46:57.186Z,62.7
2022-12-18T13:48:13.447Z,62.7
2022-12-18T13:49:29.637Z,62.4
2022-12-18T13:50:45.763Z,62.1
2022-12-18T13:52:02.020Z,62.1
2022-12-18T13:53:18.206Z,61.7
2022-12-18T13:54:33.327Z,62
2022-12-18T13:55:49.599Z,62
2022-12-18T13:57:05.779Z,61.1
2022-12-18T13:58:21.889Z,61.6
2022-12-18T13:59:38.075Z,61.9
2022-12-18T14:00:54.335Z,61.3
2022-12-18T14:02:09.551Z,61.5
2022-12-18T14:03:25.741Z,61.3
2022-12-18T14:04:41.936Z,61.6
2022-12-18T14:05:58.032Z,61.6
2022-12-18T14:07:14.300Z,61.9
2022-12-18T14:08:30.420Z,62
2022-12-18T14:09:46.676Z,62.5
2022-12-18T14:11:02.782Z,62
2022-12-18T14:12:19.060Z,62.3
2022-12-18T14:13:35.157Z,62.1
2022-12-18T14:14:51.436Z,62.6
2022-12-18T14:16:07.620Z,62.9
2022-12-18T14:17:23.794Z,62.9
2022-12-18T14:18:39.003Z,62.9
2022-12-18T14:19:55.199Z,63
2022-12-18T14:21:11.305Z,63.2
2022-12-18T14:22:27.573Z,63
2022-12-18T14:23:43.763Z,63.1
2022-12-18T14:24:59.866Z,63.4
2022-12-18T14:26:16.138Z,63.6
2022-12-18T14:27:32.309Z,63.9
2022-12-18T14:28:48.427Z,63.9
2022-12-18T14:30:04.702Z,64
2022-12-18T14:31:20.888Z,64.2
2022-12-18T14:32:37.069Z,64.3
2022-12-18T14:33:53.165Z,64
2022-12-18T14:35:08.461Z,64
2022-12-18T14:36:24.569Z,63.7
2022-12-18T14:37:40.828Z,64.1
2022-12-18T14:38:57.026Z,63.8
2022-12-18T14:40:13.210Z,63.9
2022-12-18T14:41:29.388Z,63.9
2022-12-18T14:42:45.583Z,64.1
2022-12-18T14:44:01.679Z,64.1
2022-12-18T14:45:17.952Z,63.8
2022-12-18T14:46:34.139Z,63.9
2022-12-18T14:47:50.332Z,63.9
2022-12-18T14:49:06.435Z,64
2022-12-18T14:50:22.716Z,64.2
2022-12-18T14:51:37.825Z,64.3
2022-12-18T14:52:54.094Z,64.7
2022-12-18T14:54:10.287Z,64.5
2022-12-18T14:55:26.479Z,64.8
2022-12-18T14:56:42.667Z,64.8
2022-12-18T14:57:58.839Z,64.8
2022-12-18T14:59:15.033Z,65
2022-12-18T15:00:31.232Z,64.9
2022-12-18T15:01:47.414Z,65
2022-12-18T15:03:03.593Z,65.1
2022-12-18T15:04:19.780Z,65.2
2022-12-18T15:05:35.966Z,65.3
2022-12-18T15:06:52.061Z,65.2
2022-12-18T15:08:07.358Z,65.3
2022-12-18T15:09:23.462Z,65.2
2022-12-18T15:10:39.745Z,65.3
2022-12-18T15:11:55.929Z,65.3
2022-12-18T15:13:12.110Z,65.4
2022-12-18T15:14:28.293Z,65.5
2022-12-18T15:15:44.496Z,65.7
2022-12-18T15:17:00.682Z,65.7
2022-12-18T15:18:16.872Z,65.8
2022-12-18T15:19:32.967Z,65.8
2022-12-18T15:20:49.228Z,65.8
2022-12-18T15:22:05.423Z,65.7
2022-12-18T15:23:21.622Z,65.8
2022-12-18T15:24:36.807Z,65.8
2022-12-18T15:25:52.917Z,65.7
2022-12-18T15:27:09.086Z,65.9
2022-12-18T15:28:25.385Z,66.1
2022-12-18T15:29:41.569Z,65.9
2022-12-18T15:30:57.750Z,66
2022-12-18T15:32:13.948Z,65.9
2022-12-18T15:33:30.129Z,66
2022-12-18T15:34:46.215Z,65.9
2022-12-18T15:36:02.403Z,65.9
2022-12-18T15:37:18.596Z,65.9
2022-12-18T15:38:34.873Z,66
2022-12-18T15:39:51.060Z,66
2022-12-18T15:41:06.173Z,66.1
2022-12-18T15:42:22.449Z,66.3
2022-12-18T15:43:38.645Z,66.2
2022-12-18T15:44:54.840Z,65.9
2022-12-18T15:46:11.022Z,65.9
2022-12-18T15:47:27.215Z,65.9
2022-12-18T15:48:43.395Z,66.1
2022-12-18T15:49:59.580Z,66.2
2022-12-18T15:51:15.767Z,66.3
2022-12-18T15:52:31.855Z,66.3
2022-12-18T15:53:48.051Z,66.2
2022-12-18T15:55:04.328Z,66.2
2022-12-18T15:56:20.529Z,66.5
2022-12-18T15:57:35.610Z,66.5
2022-12-18T15:58:51.902Z,66.4
2022-12-18T16:00:08.107Z,66.3
2022-12-18T16:01:24.285Z,66.4
2022-12-18T16:02:40.481Z,66.2
2022-12-18T16:03:56.650Z,66.3
2022-12-18T16:05:12.850Z,66.5
2022-12-18T16:06:28.922Z,66.4
2022-12-18T16:07:45.241Z,66.4
2022-12-18T16:09:01.400Z,66.4
2022-12-18T16:10:17.587Z,66.5
2022-12-18T16:11:33.781Z,66.5
2022-12-18T16:12:49.874Z,66.5
2022-12-18T16:14:05.170Z,66.6
2022-12-18T16:15:21.357Z,66.6
2022-12-18T16:16:37.554Z,66.4
2022-12-18T16:17:53.634Z,66.7
2022-12-18T16:19:09.812Z,66.6
2022-12-18T16:20:26.115Z,66.7
2022-12-18T16:21:42.308Z,66.5
2022-12-18T16:22:58.375Z,66.6
2022-12-18T16:24:14.681Z,66.4
2022-12-18T16:25:30.852Z,66.1
2022-12-18T16:26:47.057Z,66.2
2022-12-18T16:28:03.138Z,66.1
2022-12-18T16:29:19.420Z,66.2
2022-12-18T16:30:34.618Z,66.2
2022-12-18T16:31:50.697Z,66.3
2022-12-18T16:33:06.890Z,66.4
2022-12-18T16:34:23.195Z,66.3
2022-12-18T16:35:39.386Z,66.6
2022-12-18T16:36:55.558Z,66.6
2022-12-18T16:38:11.749Z,66.4
2022-12-18T16:39:27.944Z,66.5
2022-12-18T16:40:44.120Z,66.5
2022-12-18T16:42:00.313Z,66.6
2022-12-18T16:43:16.491Z,66.6
2022-12-18T16:44:32.585Z,66.5
2022-12-18T16:45:48.770Z,66.7
2022-12-18T16:47:04.076Z,66.5
2022-12-18T16:48:20.162Z,66.7
2022-12-18T16:49:36.459Z,66.7
2022-12-18T16:50:52.644Z,66.6
2022-12-18T16:52:08.820Z,66.6
2022-12-18T16:53:25.020Z,66.6
2022-12-18T16:54:41.090Z,66.7
2022-12-18T16:55:57.386Z,66.7
2022-12-18T16:57:13.569Z,66.6
2022-12-18T16:58:29.770Z,66.8
2022-12-18T16:59:45.956Z,66.8
2022-12-18T17:01:02.024Z,66.7